createdAt,value
2023-02-03T00:01:04.796Z,1.10
2023-02-03T00:03:31.972Z,1.10
2023-02-03T00:06:01.438Z,1.10
2023-02-03T00:08:28.662Z,1.10
2023-02-03T00:10:55.909Z,1.10
2023-02-03T00:13:24.110Z,1.10
2023-02-03T00:15:51.186Z,1.10
2023-02-03T00:18:18.492Z,1.10
2023-02-03T00:20:45.682Z,1.10
2023-02-03T00:23:13.340Z,1.10
2023-02-03T00:25:40.954Z,1.20
2023-02-03T00:28:08.199Z,1.10
2023-02-03T00:30:36.592Z,1.10
2023-02-03T00:33:05.052Z,1.10
2023-02-03T00:35:32.299Z,1.20
2023-02-03T00:37:59.517Z,1.20
2023-02-03T00:40:27.969Z,1.20
2023-02-03T00:42:55.265Z,1.20
2023-02-03T00:45:22.904Z,1.30
2023-02-03T00:47:50.121Z,1.20
2023-02-03T00:50:17.554Z,1.30
2023-02-03T00:52:44.947Z,1.30
2023-02-03T00:55:12.034Z,1.30
2023-02-03T00:57:39.160Z,1.30
2023-02-03T01:00:07.123Z,1.30
2023-02-03T01:02:34.341Z,1.40
2023-02-03T01:05:01.429Z,1.40
2023-02-03T01:07:31.642Z,1.40
2023-02-03T01:09:58.795Z,1.40
2023-02-03T01:12:25.960Z,1.50
2023-02-03T01:14:53.052Z,1.40
2023-02-03T01:17:20.173Z,1.40
2023-02-03T01:19:47.286Z,1.40
2023-02-03T01:22:14.430Z,1.40
2023-02-03T01:24:41.673Z,1.40
2023-02-03T01:27:08.858Z,1.40
2023-02-03T01:29:35.957Z,1.40
2023-02-03T01:32:03.214Z,1.40
2023-02-03T01:34:30.401Z,1.40
2023-02-03T01:36:57.493Z,1.40
2023-02-03T01:39:26.697Z,1.50
2023-02-03T01:41:55.582Z,1.50
2023-02-03T01:44:43.652Z,1.50
2023-02-03T01:47:16.543Z,1.50
2023-02-03T01:49:48.887Z,1.50
2023-02-03T01:52:17.086Z,1.60
2023-02-03T01:54:48.168Z,1.60
2023-02-03T01:57:25.387Z,1.60
2023-02-03T01:59:56.119Z,1.60
2023-02-03T02:02:23.878Z,1.70
2023-02-03T02:05:20.481Z,1.70
2023-02-03T02:07:48.801Z,1.70
2023-02-03T02:10:16.183Z,1.70
2023-02-03T02:12:43.496Z,1.70
2023-02-03T02:15:11.092Z,1.80
2023-02-03T02:17:59.511Z,1.90
2023-02-03T02:20:53.832Z,1.90
2023-02-03T02:23:50.483Z,1.90
2023-02-03T02:26:38.945Z,1.90
2023-02-03T02:29:42.769Z,1.90
2023-02-03T02:32:37.129Z,2.00
2023-02-03T02:35:10.068Z,2.00
2023-02-03T02:37:53.682Z,2.00
2023-02-03T02:40:49.349Z,2.10
2023-02-03T02:43:31.301Z,2.10
2023-02-03T02:46:11.832Z,2.20
2023-02-03T02:49:09.636Z,2.40
2023-02-03T02:51:39.275Z,2.50
2023-02-03T02:54:10.004Z,2.50
2023-02-03T02:56:40.397Z,2.60
2023-02-03T02:59:08.265Z,2.60
2023-02-03T03:01:35.472Z,2.60
2023-02-03T03:04:06.409Z,2.60
2023-02-03T03:06:38.753Z,2.60
2023-02-03T03:09:11.438Z,2.70
2023-02-03T03:11:44.472Z,2.70
2023-02-03T03:14:13.918Z,2.70
2023-02-03T03:16:47.222Z,2.70
2023-02-03T03:19:19.228Z,2.80
2023-02-03T03:22:02.824Z,2.80
2023-02-03T03:24:40.419Z,2.80
2023-02-03T03:27:42.140Z,2.90
2023-02-03T03:30:25.990Z,2.90
2023-02-03T03:32:53.929Z,2.90
2023-02-03T03:35:21.146Z,2.90
2023-02-03T03:38:01.394Z,2.90
2023-02-03T03:40:33.898Z,3.00
2023-02-03T03:43:11.781Z,2.90
2023-02-03T03:45:47.423Z,2.90
2023-02-03T03:48:22.882Z,2.90
2023-02-03T03:51:08.501Z,3.00
2023-02-03T03:53:39.432Z,3.00
2023-02-03T03:56:10.040Z,3.00
2023-02-03T03:58:39.490Z,3.00
2023-02-03T04:01:08.735Z,3.10
2023-02-03T04:03:50.675Z,3.10
2023-02-03T04:06:17.786Z,3.10
2023-02-03T04:08:44.854Z,3.10
2023-02-03T04:11:31.887Z,3.10
2023-02-03T04:13:59.035Z,3.10
2023-02-03T04:16:26.218Z,3.10
2023-02-03T04:18:53.590Z,3.20
2023-02-03T04:21:20.688Z,3.20
2023-02-03T04:23:47.821Z,3.20
2023-02-03T04:26:14.997Z,3.30
2023-02-03T04:28:43.700Z,3.30
2023-02-03T04:31:10.827Z,3.30
2023-02-03T04:33:38.027Z,3.30
2023-02-03T04:36:05.414Z,3.30
2023-02-03T04:38:33.610Z,3.30
2023-02-03T04:41:00.693Z,3.30
2023-02-03T04:43:27.952Z,3.30
2023-02-03T04:45:55.256Z,3.30
2023-02-03T04:48:22.381Z,3.30
2023-02-03T04:50:49.494Z,3.40
2023-02-03T04:53:16.566Z,3.50
2023-02-03T04:55:49.964Z,3.40
2023-02-03T04:58:17.065Z,3.50
2023-02-03T05:00:44.241Z,3.50
2023-02-03T05:03:11.489Z,3.50
2023-02-03T05:05:38.622Z,3.50
2023-02-03T05:08:05.913Z,3.40
2023-02-03T05:10:33.278Z,3.50
2023-02-03T05:13:00.383Z,3.50
2023-02-03T05:15:27.475Z,3.50
2023-02-03T05:17:57.720Z,3.60
2023-02-03T05:20:25.440Z,3.60
2023-02-03T05:22:52.889Z,3.60
2023-02-03T05:25:19.969Z,3.70
2023-02-03T05:27:47.125Z,3.70
2023-02-03T05:30:14.268Z,3.70
2023-02-03T05:32:41.412Z,3.70
2023-02-03T05:35:08.702Z,3.80
2023-02-03T05:37:35.883Z,3.70
2023-02-03T05:40:21.441Z,3.80
2023-02-03T05:42:51.826Z,3.70
2023-02-03T05:45:18.976Z,3.80
2023-02-03T05:47:46.299Z,3.70
2023-02-03T05:50:13.606Z,3.70
2023-02-03T05:52:40.704Z,3.70
2023-02-03T05:55:07.986Z,3.70
2023-02-03T05:57:35.148Z,3.70
2023-02-03T06:00:02.441Z,3.70
2023-02-03T06:02:29.557Z,3.80
2023-02-03T06:04:56.642Z,3.80
2023-02-03T06:07:23.744Z,3.90
2023-02-03T06:09:50.864Z,3.90
2023-02-03T06:12:17.987Z,4.00
2023-02-03T06:14:45.090Z,4.00
2023-02-03T06:17:12.185Z,4.00
2023-02-03T06:19:39.273Z,4.00
2023-02-03T06:22:06.349Z,4.00
2023-02-03T06:24:33.604Z,4.10
2023-02-03T06:27:00.676Z,4.10
2023-02-03T06:29:27.718Z,4.20
2023-02-03T06:31:54.913Z,4.30
2023-02-03T06:34:22.056Z,4.30
2023-02-03T06:36:49.355Z,4.30
2023-02-03T06:39:16.508Z,4.30
2023-02-03T06:41:43.642Z,4.40
2023-02-03T06:44:10.794Z,4.40
2023-02-03T06:46:38.637Z,4.50
2023-02-03T06:49:05.707Z,4.50
2023-02-03T06:51:32.891Z,4.60
2023-02-03T06:54:00.256Z,4.60
2023-02-03T06:56:27.413Z,4.70
2023-02-03T06:58:54.501Z,4.70
2023-02-03T07:01:21.851Z,4.80
2023-02-03T07:03:49.014Z,4.80
2023-02-03T07:06:16.110Z,4.90
2023-02-03T07:08:43.306Z,4.90
2023-02-03T07:11:10.695Z,4.90
2023-02-03T07:13:37.757Z,5.00
2023-02-03T07:16:05.235Z,4.90
2023-02-03T07:18:48.283Z,4.90
2023-02-03T07:21:16.868Z,5.00
2023-02-03T07:23:46.817Z,5.00
2023-02-03T07:26:13.884Z,5.00
2023-02-03T07:28:41.586Z,5.00
2023-02-03T07:31:10.779Z,5.10
2023-02-03T07:33:38.693Z,5.10
2023-02-03T07:36:07.186Z,5.10
2023-02-03T07:38:34.347Z,5.20
2023-02-03T07:41:01.559Z,5.20
2023-02-03T07:43:28.777Z,5.20
2023-02-03T07:45:55.853Z,5.20
2023-02-03T07:48:23.074Z,5.30
2023-02-03T07:50:51.032Z,5.40
2023-02-03T07:53:18.435Z,5.40
2023-02-03T07:55:45.518Z,5.40
2023-02-03T07:58:12.775Z,5.40
2023-02-03T08:00:39.893Z,5.40
2023-02-03T08:03:07.217Z,5.50
2023-02-03T08:05:34.433Z,5.60
2023-02-03T08:08:01.575Z,5.70
2023-02-03T08:10:29.398Z,5.70
2023-02-03T08:12:56.892Z,5.60
2023-02-03T08:15:24.005Z,5.70
2023-02-03T08:17:51.409Z,5.70
2023-02-03T08:20:18.634Z,5.70
2023-02-03T08:22:46.132Z,5.80
2023-02-03T08:25:13.862Z,5.80
2023-02-03T08:27:42.062Z,5.90
2023-02-03T08:30:15.614Z,5.90
2023-02-03T08:32:42.852Z,6.00
2023-02-03T08:35:10.022Z,6.00
2023-02-03T08:37:37.475Z,6.00
2023-02-03T08:40:05.872Z,5.90
2023-02-03T08:42:33.487Z,6.00
2023-02-03T08:45:01.283Z,6.00
2023-02-03T08:47:29.532Z,6.00
2023-02-03T08:49:56.694Z,6.00
2023-02-03T08:52:23.906Z,6.10
2023-02-03T08:54:51.174Z,6.10
2023-02-03T08:57:18.359Z,6.10
2023-02-03T08:59:45.976Z,6.20
2023-02-03T09:02:19.016Z,6.20
2023-02-03T09:04:47.655Z,6.30
2023-02-03T09:07:17.158Z,6.30
2023-02-03T09:09:44.373Z,6.40
2023-02-03T09:12:13.243Z,6.50
2023-02-03T09:14:40.729Z,6.50
2023-02-03T09:17:08.677Z,6.50
2023-02-03T09:19:36.744Z,6.60
2023-02-03T09:22:04.401Z,6.60
2023-02-03T09:24:32.421Z,6.70
2023-02-03T09:27:01.644Z,6.70
2023-02-03T09:29:28.836Z,6.60
2023-02-03T09:31:56.290Z,6.60
2023-02-03T09:34:23.446Z,6.60
2023-02-03T09:36:51.639Z,6.50
2023-02-03T09:39:18.846Z,6.50
2023-02-03T09:41:48.916Z,6.60
2023-02-03T09:44:28.143Z,6.60
2023-02-03T09:47:00.923Z,6.70
2023-02-03T09:49:45.583Z,6.70
2023-02-03T09:52:23.090Z,6.70
2023-02-03T09:55:03.155Z,6.70
2023-02-03T09:57:43.050Z,6.60
2023-02-03T10:00:40.571Z,6.70
2023-02-03T10:03:20.425Z,6.80
2023-02-03T10:05:52.842Z,6.80
2023-02-03T10:08:30.402Z,6.80
2023-02-03T10:11:11.475Z,6.90
2023-02-03T10:13:47.343Z,6.80
2023-02-03T10:16:47.557Z,6.70
2023-02-03T10:19:20.995Z,6.70
2023-02-03T10:21:52.782Z,6.70
2023-02-03T10:24:27.090Z,6.70
2023-02-03T10:26:55.544Z,6.80
2023-02-03T10:29:43.204Z,6.80
2023-02-03T10:32:12.706Z,6.90
2023-02-03T10:34:42.835Z,7.00
2023-02-03T10:37:15.982Z,7.00
2023-02-03T10:39:51.604Z,7.00
2023-02-03T10:42:19.620Z,7.00
2023-02-03T10:44:52.559Z,7.00
2023-02-03T10:47:39.452Z,7.10
2023-02-03T10:50:18.973Z,7.10
2023-02-03T10:52:46.405Z,7.10
2023-02-03T10:55:25.879Z,7.20
2023-02-03T10:57:54.901Z,7.30
2023-02-03T11:00:22.656Z,7.40
2023-02-03T11:03:26.338Z,7.40
2023-02-03T11:06:05.651Z,7.30
2023-02-03T11:08:34.621Z,7.30
2023-02-03T11:11:13.361Z,7.20
2023-02-03T11:13:40.687Z,7.20
2023-02-03T11:16:11.652Z,7.10
2023-02-03T11:18:43.185Z,7.10
2023-02-03T11:21:28.700Z,7.10
2023-02-03T11:24:07.667Z,7.10
2023-02-03T11:26:45.949Z,7.10
2023-02-03T11:29:34.933Z,7.20
2023-02-03T11:32:24.683Z,7.20
2023-02-03T11:35:02.844Z,7.20
2023-02-03T11:37:35.009Z,7.30
2023-02-03T11:40:08.145Z,7.30
2023-02-03T11:42:37.163Z,7.40
2023-02-03T11:45:52.019Z,7.40
2023-02-03T11:48:37.349Z,7.50
2023-02-03T11:51:23.127Z,7.60
2023-02-03T11:54:14.535Z,7.60
2023-02-03T11:56:47.041Z,7.60
2023-02-03T11:59:14.187Z,7.70
2023-02-03T12:02:13.792Z,7.70
2023-02-03T12:04:40.929Z,7.70
2023-02-03T12:07:26.361Z,7.80
2023-02-03T12:10:22.586Z,7.90
2023-02-03T12:12:59.904Z,7.90
2023-02-03T12:15:39.224Z,7.70
2023-02-03T12:18:16.209Z,7.70
2023-02-03T12:21:04.152Z,7.60
2023-02-03T12:23:42.837Z,7.50
2023-02-03T12:26:25.114Z,7.50
2023-02-03T12:28:58.734Z,7.50
2023-02-03T12:31:39.084Z,7.60
2023-02-03T12:34:12.368Z,7.50
2023-02-03T12:37:04.401Z,7.40
2023-02-03T12:39:35.088Z,7.30
2023-02-03T12:42:11.501Z,7.20
2023-02-03T12:44:51.206Z,7.20
2023-02-03T12:47:21.192Z,7.20
2023-02-03T12:49:54.729Z,7.10
2023-02-03T12:52:30.439Z,7.00
2023-02-03T12:55:08.841Z,7.00
2023-02-03T12:57:49.777Z,7.10
2023-02-03T13:00:20.039Z,7.00
2023-02-03T13:03:25.170Z,7.00
2023-02-03T13:06:11.173Z,7.00
2023-02-03T13:08:48.031Z,7.00
2023-02-03T13:11:41.178Z,7.00
2023-02-03T13:14:26.783Z,7.00
2023-02-03T13:17:03.487Z,7.00
2023-02-03T13:19:42.555Z,7.00
2023-02-03T13:22:14.982Z,7.00
2023-02-03T13:24:50.688Z,7.00
2023-02-03T13:27:37.626Z,7.00
2023-02-03T13:30:48.951Z,7.00
2023-02-03T13:33:46.602Z,7.00
2023-02-03T13:36:47.525Z,7.00
2023-02-03T13:39:51.742Z,7.10
2023-02-03T13:42:24.832Z,7.00
2023-02-03T13:44:57.370Z,7.10
2023-02-03T13:47:29.559Z,7.10
2023-02-03T13:50:03.039Z,7.20
2023-02-03T13:52:56.277Z,7.30
2023-02-03T13:55:33.610Z,7.30
2023-02-03T13:58:01.703Z,7.30
2023-02-03T14:00:44.332Z,7.20
2023-02-03T14:03:26.562Z,7.20
2023-02-03T14:05:56.391Z,7.20
2023-02-03T14:08:26.806Z,7.20
2023-02-03T14:11:31.469Z,7.30
2023-02-03T14:14:07.795Z,7.30
2023-02-03T14:16:37.101Z,7.40
2023-02-03T14:19:05.046Z,7.40
2023-02-03T14:22:13.522Z,7.40
2023-02-03T14:24:45.414Z,7.30
2023-02-03T14:27:25.325Z,7.20
2023-02-03T14:30:19.805Z,7.20
2023-02-03T14:32:51.691Z,7.10
2023-02-03T14:35:23.449Z,7.10
2023-02-03T14:38:01.056Z,7.00
2023-02-03T14:40:37.022Z,7.00
2023-02-03T14:43:28.948Z,7.00
2023-02-03T14:46:08.509Z,6.90
2023-02-03T14:48:54.485Z,6.90
2023-02-03T14:51:36.621Z,6.80
2023-02-03T14:54:16.991Z,6.80
2023-02-03T14:57:21.427Z,6.80
2023-02-03T14:59:55.224Z,6.80
2023-02-03T15:02:28.811Z,6.80
2023-02-03T15:05:14.536Z,6.80
2023-02-03T15:07:46.591Z,6.80
2023-02-03T15:10:15.236Z,6.70
2023-02-03T15:13:00.292Z,6.70
2023-02-03T15:15:30.389Z,6.70
2023-02-03T15:18:00.160Z,6.70
2023-02-03T15:20:41.705Z,6.60
2023-02-03T15:23:25.183Z,6.60
2023-02-03T15:26:00.842Z,6.60
2023-02-03T15:28:29.691Z,6.60
2023-02-03T15:31:10.109Z,6.50
2023-02-03T15:33:39.242Z,6.60
2023-02-03T15:36:13.966Z,6.60
2023-02-03T15:38:46.537Z,6.60
2023-02-03T15:41:32.328Z,6.50
2023-02-03T15:44:07.007Z,6.50
2023-02-03T15:46:40.622Z,6.40
2023-02-03T15:49:17.096Z,6.40
2023-02-03T15:52:17.468Z,6.40
2023-02-03T15:54:53.781Z,6.50
2023-02-03T15:57:31.123Z,6.50
2023-02-03T16:00:02.244Z,6.60
2023-02-03T16:02:31.461Z,6.60
2023-02-03T16:05:03.551Z,6.60
2023-02-03T16:07:31.529Z,6.60
2023-02-03T16:10:00.540Z,6.60
2023-02-03T16:12:30.104Z,6.60
2023-02-03T16:14:59.299Z,6.60
2023-02-03T16:17:29.551Z,6.70
2023-02-03T16:20:12.134Z,6.60
2023-02-03T16:22:59.297Z,6.60
2023-02-03T16:25:30.102Z,6.60
2023-02-03T16:28:19.938Z,6.70
2023-02-03T16:31:22.446Z,6.70
2023-02-03T16:34:09.524Z,6.80
2023-02-03T16:37:03.182Z,6.80
2023-02-03T16:39:49.342Z,6.80
2023-02-03T16:42:37.962Z,6.70
2023-02-03T16:45:37.001Z,6.70
2023-02-03T16:48:23.632Z,6.70
2023-02-03T16:50:59.439Z,6.60
2023-02-03T16:53:31.717Z,6.60
2023-02-03T16:56:01.497Z,6.60
2023-02-03T16:58:29.153Z,6.60
2023-02-03T17:01:00.672Z,6.60
2023-02-03T17:03:29.257Z,6.60
2023-02-03T17:05:57.793Z,6.60
2023-02-03T17:08:26.468Z,6.60
2023-02-03T17:10:54.002Z,6.50
2023-02-03T17:13:23.355Z,6.50
2023-02-03T17:15:55.281Z,6.50
2023-02-03T17:18:23.084Z,6.50
2023-02-03T17:20:50.845Z,6.50
2023-02-03T17:23:19.150Z,6.50
2023-02-03T17:25:49.315Z,6.50
2023-02-03T17:28:16.912Z,6.50
2023-02-03T17:30:44.916Z,6.50
2023-02-03T17:33:12.599Z,6.50
2023-02-03T17:35:42.032Z,6.50
2023-02-03T17:38:10.416Z,6.60
2023-02-03T17:54:29.462Z,6.20
2023-02-03T17:56:57.271Z,6.20
2023-02-03T17:59:24.797Z,6.10
2023-02-03T18:01:54.008Z,6.10
2023-02-03T18:04:22.032Z,6.10
2023-02-03T18:06:49.415Z,6.10
2023-02-03T18:09:16.914Z,6.10
2023-02-03T18:11:46.618Z,6.20
2023-02-03T18:14:16.373Z,6.10
2023-02-03T18:16:44.733Z,6.10
2023-02-03T18:19:15.312Z,6.20
2023-02-03T18:21:44.972Z,6.20
2023-02-03T18:24:13.847Z,6.10
2023-02-03T18:26:52.966Z,6.10
2023-02-03T18:29:20.960Z,6.10
2023-02-03T18:31:49.484Z,6.10
2023-02-03T18:34:18.417Z,6.00
2023-02-03T18:36:48.362Z,6.00
2023-02-03T18:39:18.916Z,5.90
2023-02-03T18:41:46.958Z,6.00
2023-02-03T18:44:15.030Z,6.00
2023-02-03T18:46:43.245Z,6.10
2023-02-03T18:49:13.124Z,6.10
2023-02-03T18:51:42.687Z,6.10
2023-02-03T18:54:11.586Z,6.10
2023-02-03T18:56:41.380Z,6.10
2023-02-03T18:59:12.266Z,6.10
2023-02-03T19:01:41.484Z,6.10
2023-02-03T19:04:09.748Z,6.10
2023-02-03T19:06:38.195Z,6.00
2023-02-03T19:09:07.044Z,5.90
2023-02-03T19:11:35.899Z,5.90
2023-02-03T19:14:05.329Z,5.90
2023-02-03T19:16:34.119Z,5.80
2023-02-03T19:19:02.408Z,5.90
2023-02-03T19:21:30.538Z,5.80
2023-02-03T19:23:59.597Z,5.80
2023-02-03T19:26:30.198Z,5.80
2023-02-03T19:28:58.644Z,5.80
2023-02-03T19:31:28.443Z,5.90
2023-02-03T19:33:59.823Z,5.90
2023-02-03T19:36:29.057Z,5.80
2023-02-03T19:38:58.193Z,5.80
2023-02-03T19:41:27.998Z,5.70
2023-02-03T19:43:55.798Z,5.80
2023-02-03T19:46:24.427Z,5.80
2023-02-03T19:48:52.826Z,5.80
2023-02-03T19:51:23.167Z,5.80
2023-02-03T19:53:55.466Z,5.80
2023-02-03T19:56:25.421Z,5.70
2023-02-03T19:58:54.872Z,5.70
2023-02-03T20:01:24.462Z,5.70
2023-02-03T20:03:52.469Z,5.70
2023-02-03T20:06:20.401Z,5.60
2023-02-03T20:08:49.446Z,5.60
2023-02-03T20:11:17.848Z,5.50
2023-02-03T20:13:47.537Z,5.50
2023-02-03T20:16:16.622Z,5.50
2023-02-03T20:18:44.488Z,5.40
2023-02-03T20:21:14.331Z,5.40
2023-02-03T20:23:44.620Z,5.40
2023-02-03T20:26:14.177Z,5.40
2023-02-03T20:28:42.539Z,5.30
2023-02-03T20:31:11.056Z,5.30
2023-02-03T20:33:39.857Z,5.30
2023-02-03T20:36:11.483Z,5.30
2023-02-03T20:38:39.803Z,5.40
2023-02-03T20:41:12.203Z,5.40
2023-02-03T20:43:40.538Z,5.40
2023-02-03T20:46:20.062Z,5.40
2023-02-03T20:48:49.426Z,5.50
2023-02-03T20:51:21.696Z,5.50
2023-02-03T20:53:50.813Z,5.50
2023-02-03T20:56:23.146Z,5.50
2023-02-03T20:58:52.221Z,5.50
2023-02-03T21:01:22.585Z,5.40
2023-02-03T21:04:11.696Z,5.40
2023-02-03T21:06:40.573Z,5.40
2023-02-03T21:09:18.557Z,5.40
2023-02-03T21:11:48.164Z,5.40
2023-02-03T21:14:45.129Z,5.30
2023-02-03T21:17:26.077Z,5.30
2023-02-03T21:19:56.744Z,5.30
2023-02-03T21:22:29.300Z,5.40
2023-02-03T21:24:59.654Z,5.40
2023-02-03T21:27:31.598Z,5.40
2023-02-03T21:30:01.146Z,5.40
2023-02-03T21:32:41.608Z,5.30
2023-02-03T21:35:32.207Z,5.30
2023-02-03T21:38:05.054Z,5.20
2023-02-03T21:40:35.407Z,5.20
2023-02-03T21:43:08.245Z,5.20
2023-02-03T21:45:44.024Z,5.20
2023-02-03T21:48:26.259Z,5.10
2023-02-03T21:50:56.940Z,5.10
2023-02-03T21:53:28.244Z,5.10
2023-02-03T21:55:56.380Z,5.00
2023-02-03T21:58:25.938Z,5.00
2023-02-03T22:00:57.401Z,4.90
2023-02-03T22:03:29.670Z,4.90
2023-02-03T22:06:26.285Z,4.80
2023-02-03T22:08:59.124Z,4.80
2023-02-03T22:11:31.614Z,4.80
2023-02-03T22:13:59.763Z,4.80
2023-02-03T22:16:27.134Z,4.70
2023-02-03T22:18:54.298Z,4.80
2023-02-03T22:21:21.739Z,4.80
2023-02-03T22:23:49.274Z,4.80
2023-02-03T22:26:17.728Z,4.80
2023-02-03T22:28:46.266Z,4.80
2023-02-03T22:31:14.306Z,4.90
2023-02-03T22:33:42.596Z,4.80
2023-02-03T22:36:11.031Z,4.80
2023-02-03T22:38:39.848Z,4.90
2023-02-03T22:41:08.225Z,4.90
2023-02-03T22:43:35.833Z,4.90
2023-02-03T22:46:04.944Z,4.90
2023-02-03T22:48:32.177Z,4.80
2023-02-03T22:50:59.653Z,4.80
2023-02-03T22:53:27.344Z,4.80
2023-02-03T22:55:54.482Z,4.70
2023-02-03T22:58:21.988Z,4.70
2023-02-03T23:00:49.221Z,4.60
2023-02-03T23:03:16.410Z,4.50
2023-02-03T23:05:43.516Z,4.50
2023-02-03T23:08:10.700Z,4.40
2023-02-03T23:10:37.885Z,4.40
2023-02-03T23:13:05.484Z,4.30
2023-02-03T23:15:32.676Z,4.30
2023-02-03T23:17:59.859Z,4.30
2023-02-03T23:20:27.153Z,4.30
2023-02-03T23:22:54.341Z,4.40
2023-02-03T23:25:21.596Z,4.40
2023-02-03T23:27:49.218Z,4.30
2023-02-03T23:30:16.655Z,4.10
2023-02-03T23:32:43.863Z,4.10
2023-02-03T23:35:29.903Z,3.90
2023-02-03T23:37:57.090Z,3.90
2023-02-03T23:40:24.249Z,4.00
2023-02-03T23:42:51.395Z,3.90
2023-02-03T23:45:18.763Z,3.90
2023-02-03T23:47:46.828Z,4.00
2023-02-03T23:50:19.158Z,4.10
2023-02-03T23:52:47.190Z,4.20
2023-02-03T23:55:17.555Z,4.20
2023-02-03T23:57:45.322Z,4.20
